Time;durP1;ratioP1;P1;durP2;ratioP2;P2;SDS_P1;SDS_P2;PMS_P1;PMS_P2;Temp;Humidity;BMP_temperature;BMP_pressure;BME280_temperature;BME280_humidity;BME280_pressure;Samples;Min_cycle;Max_cycle;Signal;HPM_P1;HPM_P2
2022/09/15 00:01:00;;;;;;;4.07;3.45;;;;;;;15.65;80.39;96745.44;5065371;28;20476;-66
2022/09/15 00:03:27;;;;;;;10.55;3.45;;;;;;;15.02;81.13;96662.13;5066598;28;20083;-67
2022/09/15 00:05:54;;;;;;;5.82;3.75;;;;;;;15.52;81.62;96740.75;5066366;28;20052;-67
2022/09/15 00:08:22;;;;;;;4.80;3.60;;;;;;;14.67;81.79;96603.78;5065704;28;20143;-68
2022/09/15 00:11:10;;;;;;;4.53;3.53;;;;;;;15.47;81.96;96733.63;5065077;28;20048;-67
2022/09/15 00:13:38;;;;;;;3.90;3.50;;;;;;;15.38;82.13;96719.31;5061685;28;20062;-67
2022/09/15 00:16:06;;;;;;;4.40;3.38;;;;;;;14.89;82.25;96638.72;5066397;28;20549;-66
2022/09/15 00:18:34;;;;;;;6.05;3.75;;;;;;;15.11;82.99;96682.00;5065047;28;20072;-66
2022/09/15 00:21:09;;;;;;;4.78;3.47;;;;;;;14.42;82.23;96567.69;5066366;28;20061;-68
2022/09/15 00:23:36;;;;;;;5.32;3.42;;;;;;;15.35;81.20;96708.16;5065727;28;20094;-68
2022/09/15 00:26:11;;;;;;;7.28;3.25;;;;;;;15.30;80.85;96706.56;5066306;28;20096;-65
2022/09/15 00:28:38;;;;;;;7.55;3.20;;;;;;;14.89;80.48;96630.34;5066142;28;20058;-66
2022/09/15 00:31:08;;;;;;;5.00;3.10;;;;;;;15.10;81.25;96658.09;5064379;28;20123;-66
2022/09/15 00:33:35;;;;;;;4.50;3.70;;;;;;;15.21;81.67;96681.13;5064870;28;20056;-67
2022/09/15 00:36:05;;;;;;;7.72;4.43;;;;;;;13.93;81.40;96478.00;5065937;28;20091;-66
2022/09/15 00:38:33;;;;;;;3.22;2.80;;;;;;;15.32;80.86;96700.59;5061911;28;20502;-64
2022/09/15 00:41:00;;;;;;;6.68;2.80;;;;;;;15.22;80.94;96699.47;5046005;28;20132;-65
2022/09/15 00:43:51;;;;;;;4.70;3.55;;;;;;;15.29;80.65;96699.41;5046692;28;20142;-64
2022/09/15 00:46:24;;;;;;;6.88;4.20;;;;;;;15.08;82.69;96696.75;5044458;28;20063;-65
2022/09/15 00:48:59;;;;;;;4.38;3.97;;;;;;;15.18;83.77;96705.06;5044980;28;20171;-65
2022/09/15 00:51:58;;;;;;;7.78;3.97;;;;;;;15.20;83.99;96707.44;5045718;28;20143;-67
2022/09/15 00:54:29;;;;;;;6.53;4.32;;;;;;;14.97;83.92;96659.75;5045361;28;20134;-65
2022/09/15 00:57:00;;;;;;;8.05;4.32;;;;;;;15.06;85.74;96708.31;5045483;28;20085;-65
2022/09/15 00:59:30;;;;;;;7.03;4.45;;;;;;;14.23;85.10;96556.22;5045711;28;20140;-65
2022/09/15 01:02:10;;;;;;;4.72;3.85;;;;;;;15.13;85.63;96724.22;5044046;28;20132;-65
2022/09/15 01:04:37;;;;;;;4.60;3.95;;;;;;;15.03;86.27;96713.94;5045839;28;20076;-65
2022/09/15 01:07:06;;;;;;;6.97;4.20;;;;;;;14.22;86.43;96624.28;5045532;28;20502;-64
2022/09/15 01:09:43;;;;;;;5.82;3.55;;;;;;;14.49;85.48;96622.59;5043810;28;20081;-65
2022/09/15 01:12:10;;;;;;;4.30;3.75;;;;;;;14.58;84.66;96648.84;5045159;28;20516;-65
2022/09/15 01:14:37;;;;;;;4.50;3.97;;;;;;;14.99;84.57;96690.84;5045532;28;20091;-65
2022/09/15 01:17:10;;;;;;;4.57;3.67;;;;;;;14.63;84.62;96650.41;5043691;28;20048;-65
2022/09/15 01:20:06;;;;;;;8.55;4.03;;;;;;;15.08;84.05;96710.69;5044113;28;20136;-67
2022/09/15 01:23:00;;;;;;;4.68;3.38;;;;;;;15.00;84.34;96704.38;5042349;28;20122;-65
2022/09/15 01:25:50;;;;;;;6.47;3.70;;;;;;;14.98;84.33;96700.41;5045237;28;20111;-65
2022/09/15 01:29:03;;;;;;;4.55;3.58;;;;;;;14.89;84.65;96691.72;5045534;28;20422;-65
2022/09/15 01:31:35;;;;;;;6.50;3.70;;;;;;;14.49;85.32;96650.47;5022174;28;20089;-64
2022/09/15 01:34:13;;;;;;;3.75;3.28;;;;;;;14.39;85.87;96635.38;5040843;28;20049;-64
2022/09/15 01:36:51;;;;;;;4.97;3.83;;;;;;;14.72;85.55;96689.78;5044951;28;20076;-64
2022/09/15 01:39:31;;;;;;;5.07;3.53;;;;;;;13.70;85.21;96500.78;5053689;28;20523;-65
2022/09/15 01:42:11;;;;;;;6.22;3.70;;;;;;;14.72;85.76;96670.25;5064937;28;20072;-65
2022/09/15 01:44:44;;;;;;;4.28;3.33;;;;;;;14.88;84.71;96685.31;5065253;28;20052;-64
2022/09/15 01:47:14;;;;;;;4.75;3.25;;;;;;;14.90;83.53;96688.50;5064822;28;20088;-64
2022/09/15 01:49:53;;;;;;;4.25;3.83;;;;;;;14.87;83.55;96677.38;5063601;28;20147;-64
2022/09/15 01:52:22;;;;;;;8.02;4.45;;;;;;;14.77;84.12;96673.44;5064216;28;20117;-65
2022/09/15 01:54:56;;;;;;;11.70;5.82;;;;;;;14.77;85.18;96678.22;5064729;28;20583;-65
2022/09/15 01:57:23;;;;;;;8.93;6.38;;;;;;;14.49;85.04;96633.75;5063183;28;20487;-66
2022/09/15 01:59:52;;;;;;;8.13;6.57;;;;;;;14.82;85.35;96681.38;5064563;28;20152;-67
2022/09/15 02:02:21;;;;;;;9.45;6.82;;;;;;;14.70;86.76;96678.25;5064365;28;20093;-65
2022/09/15 02:04:53;;;;;;;9.45;5.85;;;;;;;14.36;87.30;96618.69;5063912;28;20495;-66
2022/09/15 02:07:39;;;;;;;7.15;4.70;;;;;;;14.85;86.79;96690.91;5064500;28;20076;-66
2022/09/15 02:10:25;;;;;;;6.57;4.45;;;;;;;14.81;86.96;96681.78;5064774;28;20110;-65
2022/09/15 02:13:04;;;;;;;7.50;4.68;;;;;;;14.90;86.28;96704.44;5064641;28;20163;-65
2022/09/15 02:15:46;;;;;;;7.18;4.13;;;;;;;14.69;88.05;96696.16;5064382;28;20083;-64
2022/09/15 02:18:29;;;;;;;6.25;4.45;;;;;;;14.12;87.51;96602.81;5064864;28;20084;-65
2022/09/15 02:21:09;;;;;;;6.55;4.63;;;;;;;14.75;88.09;96702.91;5064654;28;20578;-65
2022/09/15 02:23:42;;;;;;;8.10;4.32;;;;;;;14.77;87.96;96697.72;5063106;28;20088;-65
2022/09/15 02:26:15;;;;;;;7.88;4.32;;;;;;;14.47;86.58;96648.09;5075827;28;20816;-65
2022/09/15 02:28:45;;;;;;;6.95;3.83;;;;;;;14.71;86.59;96707.72;5084340;28;20143;-65
2022/09/15 02:31:15;;;;;;;4.00;3.60;;;;;;;14.71;86.47;96707.72;5084337;28;20151;-66
2022/09/15 02:33:48;;;;;;;6.45;3.85;;;;;;;14.88;85.79;96706.84;5084136;28;20082;-65
2022/09/15 02:36:18;;;;;;;5.05;3.22;;;;;;;14.82;85.10;96700.91;5084317;28;20407;-65
2022/09/15 02:38:53;;;;;;;5.05;3.65;;;;;;;14.83;85.06;96694.13;5078939;28;20106;-65
2022/09/15 02:41:20;;;;;;;6.20;3.67;;;;;;;14.64;84.79;96691.00;5064337;28;20519;-65
2022/09/15 02:43:48;;;;;;;7.05;3.80;;;;;;;14.69;86.00;96687.81;5063044;28;20052;-65
2022/09/15 02:46:17;;;;;;;4.57;3.70;;;;;;;14.70;85.70;96692.19;5066445;28;20055;-66
2022/09/15 02:48:44;;;;;;;4.97;3.40;;;;;;;14.50;85.44;96646.47;5068448;28;20509;-65
2022/09/15 02:51:12;;;;;;;5.22;3.60;;;;;;;14.39;85.62;96640.16;5068121;28;20083;-66
2022/09/15 02:53:38;;;;;;;3.80;3.40;;;;;;;14.78;85.73;96683.38;5067788;28;20088;-66
2022/09/15 02:56:06;;;;;;;7.18;3.60;;;;;;;14.84;85.36;96690.13;5068114;28;20515;-65
2022/09/15 02:58:33;;;;;;;7.57;4.75;;;;;;;14.48;88.04;96699.06;5067817;28;20124;-66
2022/09/15 03:01:02;;;;;;;9.00;4.22;;;;;;;14.44;88.16;96692.69;5066754;28;20106;-66
2022/09/15 03:03:31;;;;;;;9.57;5.65;;;;;;;13.40;87.93;96522.75;5067886;28;20048;-64
2022/09/15 03:06:15;;;;;;;6.47;4.60;;;;;;;14.39;87.68;96673.59;5066593;28;20048;-65
2022/09/15 03:08:54;;;;;;;7.50;4.88;;;;;;;14.41;87.86;96694.31;5067495;28;20506;-64
2022/09/15 03:11:23;;;;;;;7.15;4.35;;;;;;;13.92;88.18;96629.56;5067950;28;20436;-65
2022/09/15 03:13:54;;;;;;;7.95;3.90;;;;;;;14.46;87.65;96690.31;5067229;28;20519;-64
2022/09/15 03:16:22;;;;;;;6.57;4.00;;;;;;;14.30;88.46;96664.88;5067995;28;20517;-64
2022/09/15 03:18:48;;;;;;;4.80;3.80;;;;;;;14.13;88.17;96626.72;5066384;28;20053;-64
2022/09/15 03:21:16;;;;;;;5.70;3.97;;;;;;;13.99;87.44;96598.91;5067568;28;20135;-64
2022/09/15 03:23:44;;;;;;;6.32;3.92;;;;;;;14.48;87.36;96688.69;5067489;28;20588;-64
2022/09/15 03:26:11;;;;;;;6.47;4.40;;;;;;;14.04;90.88;96684.81;5066377;28;20045;-64
2022/09/15 03:28:39;;;;;;;7.20;4.47;;;;;;;13.74;94.64;96684.50;5067655;28;20053;-64
2022/09/15 03:31:07;;;;;;;5.82;4.70;;;;;;;13.83;93.44;96684.88;5067810;28;20082;-64
2022/09/15 03:33:35;;;;;;;7.05;4.57;;;;;;;13.36;93.14;96617.34;5067836;28;20052;-65
2022/09/15 03:36:02;;;;;;;4.63;3.88;;;;;;;13.64;92.98;96655.47;5067812;28;20055;-65
2022/09/15 03:38:29;;;;;;;8.55;5.78;;;;;;;13.91;92.61;96683.66;5070381;28;20121;-64
2022/09/15 03:41:07;;;;;;;9.48;5.72;;;;;;;13.98;92.81;96692.00;5087672;28;20139;-64
2022/09/15 03:43:35;;;;;;;7.63;4.85;;;;;;;14.01;92.70;96696.75;5087839;28;20553;-63
2022/09/15 03:46:05;;;;;;;7.15;4.30;;;;;;;14.18;91.54;96684.81;5086434;28;20134;-65
2022/09/15 03:48:34;;;;;;;7.57;4.88;;;;;;;13.99;92.19;96658.19;5087641;28;20083;-65
2022/09/15 03:51:02;;;;;;;9.50;4.88;;;;;;;14.30;91.23;96698.31;5087667;28;20139;-64
2022/09/15 03:53:38;;;;;;;6.70;4.90;;;;;;;14.20;90.89;96671.25;5086033;28;20536;-65
2022/09/15 03:56:07;;;;;;;7.35;4.82;;;;;;;14.30;90.03;96681.59;5087468;28;20127;-64
2022/09/15 03:58:34;;;;;;;7.05;4.68;;;;;;;14.37;89.75;96687.16;5084520;28;20125;-65
2022/09/15 04:01:00;;;;;;;8.80;4.05;;;;;;;13.92;88.66;96598.94;5087336;28;20051;-65
2022/09/15 04:03:27;;;;;;;8.77;5.00;;;;;;;14.29;88.64;96657.75;5087374;28;20405;-64
2022/09/15 04:05:54;;;;;;;5.03;4.05;;;;;;;14.18;88.78;96629.88;5087000;28;20123;-65
2022/09/15 04:08:20;;;;;;;5.07;3.88;;;;;;;14.34;87.63;96621.88;5087430;28;20105;-66
2022/09/15 04:10:47;;;;;;;7.90;4.25;;;;;;;14.59;86.95;96666.38;5086412;28;20522;-65
2022/09/15 04:13:13;;;;;;;5.22;4.10;;;;;;;14.69;87.92;96682.22;5087110;28;20151;-65
2022/09/15 04:15:40;;;;;;;7.35;4.10;;;;;;;14.70;87.13;96661.53;5086688;28;20139;-64
2022/09/15 04:18:07;;;;;;;14.40;4.93;;;;;;;14.37;86.35;96609.16;5085606;28;20089;-65
2022/09/15 04:20:38;;;;;;;10.40;3.95;;;;;;;14.90;86.87;96693.28;5086566;28;20134;-65
2022/09/15 04:23:05;;;;;;;7.75;4.90;;;;;;;14.54;86.62;96613.81;5087587;28;20066;-65
2022/09/15 04:25:31;;;;;;;7.60;4.45;;;;;;;15.02;86.28;96684.44;5086563;28;20083;-64
2022/09/15 04:27:58;;;;;;;10.32;4.65;;;;;;;14.75;86.86;96652.72;5086821;28;20408;-64
2022/09/15 04:30:25;;;;;;;11.95;6.90;;;;;;;14.83;86.21;96629.16;5086073;28;20102;-65
2022/09/15 04:32:52;;;;;;;9.48;5.35;;;;;;;15.23;85.34;96678.72;5086740;28;20139;-65
2022/09/15 04:35:20;;;;;;;6.95;4.55;;;;;;;14.60;85.53;96595.47;5086156;28;20083;-65
2022/09/15 04:37:47;;;;;;;9.57;6.03;;;;;;;15.25;85.04;96687.50;5086855;28;20117;-66
2022/09/15 04:40:14;;;;;;;10.85;5.85;;;;;;;15.30;84.71;96700.22;5068720;28;20063;-63
2022/09/15 04:42:41;;;;;;;9.38;5.25;;;;;;;15.01;83.96;96650.19;5066276;28;20044;-65
2022/09/15 04:45:08;;;;;;;6.80;5.30;;;;;;;15.37;83.71;96689.78;5065571;28;20088;-66
2022/09/15 04:47:34;;;;;;;6.47;4.85;;;;;;;15.11;83.50;96651.31;5066203;28;20083;-65
2022/09/15 04:50:01;;;;;;;8.80;5.90;;;;;;;14.71;83.34;96579.47;5065821;28;20045;-65
2022/09/15 04:52:28;;;;;;;11.73;5.45;;;;;;;15.60;82.99;96709.56;5064532;28;20048;-65
2022/09/15 04:54:54;;;;;;;19.45;6.93;;;;;;;15.67;82.65;96715.09;5064130;28;20131;-64
2022/09/15 04:57:21;;;;;;;13.40;7.25;;;;;;;15.59;83.72;96707.19;5065925;28;20049;-65
2022/09/15 04:59:47;;;;;;;14.43;7.68;;;;;;;15.71;83.23;96704.69;5064043;28;20519;-62
2022/09/15 05:02:14;;;;;;;17.65;8.25;;;;;;;15.21;83.33;96603.00;5066098;28;20061;-65
2022/09/15 05:04:41;;;;;;;10.38;6.68;;;;;;;16.04;82.65;96695.63;5065303;28;20051;-65
2022/09/15 05:07:07;;;;;;;8.13;5.97;;;;;;;16.16;81.48;96703.47;5065739;28;20115;-65
2022/09/15 05:09:34;;;;;;;11.25;5.38;;;;;;;14.32;80.77;96395.03;5065250;28;20106;-66
2022/09/15 05:12:01;;;;;;;9.25;5.60;;;;;;;16.38;80.89;96704.03;5065634;28;20103;-65
2022/09/15 05:14:27;;;;;;;8.98;5.50;;;;;;;16.56;80.57;96688.69;5065420;28;20403;-65
2022/09/15 05:16:54;;;;;;;10.25;4.93;;;;;;;16.70;79.62;96686.91;5065429;28;20143;-66
2022/09/15 05:19:21;;;;;;;9.82;5.78;;;;;;;16.81;78.75;96688.38;5063800;28;20844;-65
2022/09/15 05:21:47;;;;;;;11.30;5.03;;;;;;;16.89;78.01;96686.25;5065215;28;20088;-66
2022/09/15 05:24:14;;;;;;;7.30;4.63;;;;;;;16.90;77.99;96679.47;5065166;28;20083;-65
2022/09/15 05:26:40;;;;;;;9.70;4.20;;;;;;;16.66;77.30;96619.06;5065028;28;20101;-65
2022/09/15 05:29:07;;;;;;;6.75;4.55;;;;;;;17.22;75.83;96682.59;5064997;28;20045;-66
2022/09/15 05:31:34;;;;;;;14.07;4.25;;;;;;;16.98;75.48;96630.56;5064875;28;20144;-65
2022/09/15 05:34:03;;;;;;;8.15;4.43;;;;;;;17.50;75.14;96673.78;5063432;28;20061;-65
2022/09/15 05:36:30;;;;;;;10.68;4.70;;;;;;;17.67;74.01;96678.31;5064788;28;20052;-65
2022/09/15 05:38:57;;;;;;;9.02;4.35;;;;;;;17.75;74.65;96674.19;5070734;28;20063;-65
2022/09/15 05:41:26;;;;;;;5.68;3.75;;;;;;;18.00;73.94;96672.53;5084951;28;20493;-64
2022/09/15 05:43:54;;;;;;;6.40;3.75;;;;;;;17.77;72.30;96621.31;5072150;28;20507;-66
2022/09/15 05:46:21;;;;;;;6.68;3.30;;;;;;;18.21;71.91;96639.72;5058091;28;20129;-65
2022/09/15 05:48:48;;;;;;;3.88;3.40;;;;;;;17.20;72.68;96491.91;5044744;28;20052;-68
2022/09/15 05:51:14;;;;;;;7.55;3.20;;;;;;;16.39;69.87;96331.81;5047803;28;20083;-60
2022/09/15 05:53:41;;;;;;;5.80;3.40;;;;;;;18.54;69.44;96636.66;5082652;28;20051;-64
2022/09/15 05:56:13;;;;;;;8.00;3.63;;;;;;;19.09;68.60;96678.78;5083567;28;20131;-63
2022/09/15 05:58:41;;;;;;;6.70;3.53;;;;;;;19.11;67.92;96628.59;5073011;28;20099;-66
2022/09/15 06:01:12;;;;;;;8.40;4.00;;;;;;;19.47;66.32;96637.78;5047389;28;20115;-64
2022/09/15 06:03:39;;;;;;;9.85;4.57;;;;;;;19.83;65.54;96670.63;5074479;28;20056;-66
2022/09/15 06:06:06;;;;;;;6.25;3.58;;;;;;;19.90;64.68;96639.53;5084204;28;20044;-61
2022/09/15 06:08:36;;;;;;;6.63;3.83;;;;;;;19.80;63.44;96615.28;5044728;28;20211;-63
2022/09/15 06:11:05;;;;;;;5.05;3.15;;;;;;;20.29;62.97;96664.63;5051016;28;20317;-65
2022/09/15 06:13:32;;;;;;;5.18;3.53;;;;;;;20.47;62.32;96653.69;5042489;28;20052;-68
2022/09/15 06:16:06;;;;;;;8.70;3.08;;;;;;;20.61;62.11;96644.84;5044016;28;20482;-68
2022/09/15 06:18:36;;;;;;;7.32;3.55;;;;;;;20.83;60.80;96626.09;5047001;28;20055;-63
2022/09/15 06:21:08;;;;;;;4.40;2.92;;;;;;;20.81;60.14;96611.66;5056635;28;20487;-68
2022/09/15 06:23:35;;;;;;;6.95;3.22;;;;;;;20.78;59.57;96570.34;5044625;28;20092;-63
2022/09/15 06:26:08;;;;;;;6.43;3.70;;;;;;;21.52;58.46;96656.16;5064279;28;20088;-63
2022/09/15 06:28:34;;;;;;;7.50;3.33;;;;;;;20.93;57.72;96530.03;5064918;28;20083;-66
2022/09/15 06:31:02;;;;;;;18.13;4.05;;;;;;;21.33;58.08;96581.09;5084473;28;20075;-69
2022/09/15 06:33:29;;;;;;;11.70;4.25;;;;;;;19.96;58.39;96342.56;5064565;28;20084;-63
2022/09/15 06:35:55;;;;;;;9.27;3.80;;;;;;;22.05;57.99;96648.78;5062437;28;20612;-70
2022/09/15 06:38:22;;;;;;;15.02;3.83;;;;;;;21.73;57.88;96592.63;5062790;28;20081;-61
2022/09/15 06:40:58;;;;;;;15.30;4.75;;;;;;;21.56;59.04;96594.78;5063080;28;20102;-63
2022/09/15 06:43:25;;;;;;;11.00;3.72;;;;;;;22.22;57.91;96653.78;5048118;28;20093;-66
2022/09/15 06:45:52;;;;;;;13.52;3.33;;;;;;;22.15;56.98;96614.56;5042453;28;20599;-61
2022/09/15 06:48:18;;;;;;;7.90;3.40;;;;;;;22.54;56.05;96663.97;5044106;28;20500;-60
2022/09/15 06:50:53;;;;;;;4.38;3.38;;;;;;;21.95;55.51;96537.91;5043916;28;20126;-63
2022/09/15 06:53:20;;;;;;;6.85;3.30;;;;;;;21.25;54.56;96399.41;5044414;28;20605;-59
2022/09/15 06:55:47;;;;;;;6.18;2.85;;;;;;;22.92;52.52;96632.75;5062871;28;20460;-60
2022/09/15 06:58:14;;;;;;;6.53;3.03;;;;;;;23.21;52.38;96621.91;5063739;28;20408;-63
2022/09/15 07:00:41;;;;;;;9.70;3.25;;;;;;;22.95;51.49;96553.47;5059703;28;20616;-63
2022/09/15 07:03:08;;;;;;;6.97;4.10;;;;;;;23.73;51.06;96647.28;5062714;28;20140;-63
2022/09/15 07:05:35;;;;;;;5.75;3.50;;;;;;;23.23;50.04;96540.28;5063198;28;20079;-59
2022/09/15 07:08:02;;;;;;;6.97;3.33;;;;;;;23.94;49.46;96646.41;5062663;28;20131;-63
2022/09/15 07:10:28;;;;;;;4.78;3.22;;;;;;;24.18;49.68;96644.63;5047385;28;20103;-64
2022/09/15 07:12:55;;;;;;;11.23;4.60;;;;;;;24.36;47.59;96644.63;5050819;28;20056;-64
2022/09/15 07:15:24;;;;;;;4.28;3.55;;;;;;;23.88;47.57;96535.13;5061158;28;20044;-63
2022/09/15 07:17:51;;;;;;;5.82;4.05;;;;;;;24.71;47.09;96626.09;5071374;28;20048;-65
2022/09/15 07:20:17;;;;;;;6.32;3.92;;;;;;;24.73;47.08;96617.91;5056865;28;20428;-69
2022/09/15 07:22:44;;;;;;;6.53;4.75;;;;;;;24.42;45.60;96518.13;5042671;28;20128;-65
2022/09/15 07:25:11;;;;;;;8.48;4.65;;;;;;;25.40;45.21;96625.34;5081821;28;20044;-68
2022/09/15 07:27:37;;;;;;;6.90;4.35;;;;;;;24.88;44.82;96556.47;5061815;28;20091;-67
2022/09/15 07:30:07;;;;;;;5.00;3.70;;;;;;;25.51;44.34;96608.59;5062673;28;20054;-65
2022/09/15 07:32:34;;;;;;;7.00;3.28;;;;;;;24.88;43.91;96499.78;5064185;28;20496;-67
2022/09/15 07:35:01;;;;;;;4.22;3.13;;;;;;;25.55;43.95;96569.47;5061410;28;20072;-64
2022/09/15 07:37:27;;;;;;;8.07;4.50;;;;;;;25.44;44.30;96538.81;5060623;28;20091;-64
2022/09/15 07:39:54;;;;;;;7.35;4.40;;;;;;;24.56;43.83;96341.91;5061041;28;20045;-66
2022/09/15 07:42:21;;;;;;;9.75;3.85;;;;;;;26.46;43.09;96632.97;5058759;28;20049;-66
2022/09/15 07:44:47;;;;;;;6.20;3.60;;;;;;;26.58;43.63;96629.88;5057335;28;20400;-63
2022/09/15 07:47:14;;;;;;;10.18;4.07;;;;;;;25.95;43.32;96525.25;5062165;28;20107;-61
2022/09/15 07:49:42;;;;;;;4.63;3.63;;;;;;;26.09;43.03;96543.63;5046981;28;20056;-61
2022/09/15 07:52:09;;;;;;;6.93;4.57;;;;;;;26.61;43.66;96634.56;5059564;28;20527;-66
2022/09/15 07:54:35;;;;;;;9.32;3.95;;;;;;;26.59;43.48;96627.78;5048696;28;20084;-66
2022/09/15 07:57:02;;;;;;;7.78;4.30;;;;;;;25.80;43.39;96524.41;5070574;28;20119;-63
2022/09/15 07:59:29;;;;;;;6.03;3.58;;;;;;;26.42;44.29;96632.34;5061814;28;20088;-64
2022/09/15 08:01:55;;;;;;;11.30;5.28;;;;;;;26.66;44.34;96624.63;5063149;28;20135;-65
2022/09/15 08:04:22;;;;;;;12.50;5.07;;;;;;;25.79;44.63;96459.59;5065296;28;20044;-66
2022/09/15 08:06:49;;;;;;;11.85;4.35;;;;;;;26.82;43.34;96592.88;5062082;28;20109;-65
2022/09/15 08:09:16;;;;;;;4.63;3.50;;;;;;;27.32;42.47;96617.34;5060231;28;20060;-64
2022/09/15 08:11:43;;;;;;;10.30;4.07;;;;;;;27.25;42.63;96620.53;5072721;28;20437;-63
2022/09/15 08:14:10;;;;;;;6.57;3.80;;;;;;;27.51;41.42;96607.31;5052426;28;20229;-65
2022/09/15 08:16:37;;;;;;;6.97;3.17;;;;;;;27.83;40.49;96614.81;5046492;28;20160;-66
2022/09/15 08:19:04;;;;;;;7.53;3.60;;;;;;;27.96;40.34;96617.38;5045302;28;20523;-66
2022/09/15 08:21:30;;;;;;;7.10;3.92;;;;;;;27.88;40.30;96605.56;5046528;28;20080;-66
2022/09/15 08:23:58;;;;;;;5.15;3.13;;;;;;;28.23;40.01;96610.47;5046411;28;20102;-65
2022/09/15 08:26:26;;;;;;;4.95;3.10;;;;;;;28.28;40.04;96613.38;5044912;28;20139;-64
2022/09/15 08:28:53;;;;;;;8.50;4.90;;;;;;;28.31;40.31;96615.28;5046172;28;20122;-64
2022/09/15 08:31:22;;;;;;;5.03;3.50;;;;;;;27.88;39.46;96486.00;5044553;28;20150;-68
2022/09/15 08:33:52;;;;;;;21.80;11.25;;;;;;;28.76;38.93;96591.75;5055642;28;20438;-64
2022/09/15 08:36:19;;;;;;;9.15;3.58;;;;;;;28.83;39.17;96576.25;5056362;28;20064;-63
2022/09/15 08:38:46;;;;;;;5.78;3.55;;;;;;;27.88;38.53;96400.56;5068761;28;20079;-70
2022/09/15 08:41:36;;;;;;;3.88;3.35;;;;;;;28.89;38.42;96525.75;5061850;28;20083;-64
2022/09/15 08:44:24;;;;;;;3.53;3.22;;;;;;;29.68;38.38;96600.94;5061888;28;20140;-64
2022/09/15 08:47:05;;;;;;;6.93;3.30;;;;;;;29.87;37.30;96595.63;5043313;28;20135;-61
2022/09/15 08:49:58;;;;;;;5.45;3.75;;;;;;;29.93;37.53;96605.81;5044765;28;20118;-65
2022/09/15 08:52:49;;;;;;;4.07;3.63;;;;;;;29.98;37.50;96573.63;5029746;28;20470;-66
2022/09/15 08:55:51;;;;;;;5.35;3.55;;;;;;;30.22;37.35;96588.34;5054693;28;20056;-67
2022/09/15 08:58:24;;;;;;;21.50;6.88;;;;;;;30.37;37.29;96577.50;5059645;28;20565;-71
2022/09/15 09:00:56;;;;;;;13.68;8.10;;;;;;;30.33;37.95;96585.56;5057010;28;20080;-66
2022/09/15 09:03:37;;;;;;;6.03;4.10;;;;;;;30.41;37.09;96555.19;5046839;28;20060;-66
2022/09/15 09:06:19;;;;;;;8.13;3.85;;;;;;;30.62;36.83;96559.41;5051459;28;20407;-61
2022/09/15 09:09:04;;;;;;;15.13;5.85;;;;;;;30.80;37.04;96576.13;5059858;28;20136;-61
2022/09/15 09:11:39;;;;;;;5.22;4.53;;;;;;;30.58;36.43;96570.31;5067659;28;20052;-71
2022/09/15 09:14:13;;;;;;;7.70;4.38;;;;;;;30.73;35.43;96565.16;5044422;28;20114;-70
2022/09/15 09:16:58;;;;;;;34.95;18.10;;;;;;;31.00;34.52;96560.03;5060977;28;20083;-67
2022/09/15 09:19:45;;;;;;;9.20;5.30;;;;;;;31.29;35.72;96560.34;5062047;28;20136;-74
2022/09/15 09:22:19;;;;;;;5.57;3.45;;;;;;;30.96;34.25;96560.28;5058715;28;20076;-66
2022/09/15 09:24:54;;;;;;;7.43;3.28;;;;;;;30.54;34.33;96443.94;5063610;28;20062;-68
2022/09/15 09:27:42;;;;;;;5.60;3.38;;;;;;;31.48;33.99;96560.63;5056942;28;20084;-65
2022/09/15 09:30:16;;;;;;;8.57;3.47;;;;;;;31.29;32.13;96520.25;5042153;28;20052;-64
2022/09/15 09:33:21;;;;;;;6.70;3.92;;;;;;;31.65;32.63;96544.19;5043254;28;20154;-64
2022/09/15 09:35:51;;;;;;;10.07;3.47;;;;;;;31.76;32.49;96541.31;5041128;28;20053;-65
2022/09/15 09:38:29;;;;;;;6.72;3.83;;;;;;;31.73;33.08;96542.34;5043470;28;20072;-65
2022/09/15 09:40:56;;;;;;;6.80;2.95;;;;;;;31.86;32.20;96539.78;5062419;28;20084;-66
2022/09/15 09:43:28;;;;;;;6.35;3.33;;;;;;;31.16;32.21;96414.06;5061715;28;20056;-67
2022/09/15 09:45:55;;;;;;;10.20;4.20;;;;;;;31.81;32.03;96497.53;5063678;28;20055;-67
2022/09/15 09:48:26;;;;;;;7.93;3.95;;;;;;;31.95;32.09;96497.28;5061574;28;20045;-65
2022/09/15 09:50:54;;;;;;;8.93;3.40;;;;;;;32.27;31.43;96535.75;5062439;28;20503;-66
2022/09/15 09:53:24;;;;;;;8.73;3.80;;;;;;;32.25;31.54;96526.09;5061314;28;20044;-67
2022/09/15 09:55:54;;;;;;;4.47;3.30;;;;;;;31.99;31.79;96514.22;5061250;28;20056;-64
2022/09/15 09:58:24;;;;;;;8.73;3.35;;;;;;;31.57;31.61;96478.06;5040940;28;20064;-63
2022/09/15 10:00:51;;;;;;;6.93;3.22;;;;;;;30.98;31.67;96342.31;5025400;28;20045;-69
2022/09/15 10:03:21;;;;;;;7.53;3.38;;;;;;;32.21;30.87;96509.19;5024447;28;20084;-64
2022/09/15 10:06:00;;;;;;;5.57;3.42;;;;;;;32.17;30.46;96514.41;5032682;28;20049;-60
2022/09/15 10:08:26;;;;;;;5.75;3.00;;;;;;;32.02;30.89;96473.03;5043150;28;20053;-66
2022/09/15 10:10:57;;;;;;;6.38;3.28;;;;;;;32.38;30.15;96523.47;5055501;28;20048;-60
2022/09/15 10:13:23;;;;;;;13.75;3.90;;;;;;;32.07;30.25;96480.84;5039419;28;20103;-62
2022/09/15 10:15:58;;;;;;;9.27;3.47;;;;;;;31.94;30.01;96494.94;5035947;28;20052;-65
2022/09/15 10:18:32;;;;;;;10.38;3.22;;;;;;;31.56;29.79;96381.22;5024388;28;20049;-61
2022/09/15 10:21:02;;;;;;;9.98;3.65;;;;;;;32.38;29.71;96512.00;5031205;28;20118;-63
2022/09/15 10:23:30;;;;;;;4.78;3.22;;;;;;;31.95;29.55;96413.38;5042940;28;20061;-67
2022/09/15 10:26:14;;;;;;;8.32;3.20;;;;;;;32.63;28.79;96504.31;5035722;28;20128;-67
2022/09/15 10:28:42;;;;;;;7.57;3.50;;;;;;;32.67;28.95;96494.13;5036278;28;20088;-64
2022/09/15 10:31:12;;;;;;;13.02;3.53;;;;;;;32.64;29.29;96489.44;5043384;28;20048;-64
2022/09/15 10:33:41;;;;;;;11.23;4.00;;;;;;;32.36;28.88;96468.69;5041844;28;20089;-67
2022/09/15 10:36:17;;;;;;;7.03;3.60;;;;;;;32.41;29.69;96488.00;5038667;28;20049;-61
2022/09/15 10:38:47;;;;;;;12.15;3.47;;;;;;;32.17;29.99;96436.22;5027820;28;20575;-63
2022/09/15 10:41:27;;;;;;;10.07;4.20;;;;;;;32.57;29.91;96490.00;5039066;28;20084;-62
2022/09/15 10:44:32;;;;;;;6.55;3.38;;;;;;;32.65;29.83;96462.31;5022577;28;20507;-63
2022/09/15 10:47:10;;;;;;;7.00;3.30;;;;;;;32.64;29.97;96477.19;5041550;28;20080;-61
2022/09/15 10:49:37;;;;;;;11.88;3.72;;;;;;;32.74;30.15;96472.69;5043575;28;20099;-60
2022/09/15 10:52:16;;;;;;;11.57;3.95;;;;;;;32.75;30.57;96471.38;5043920;28;20080;-64
2022/09/15 10:55:04;;;;;;;10.52;3.55;;;;;;;32.95;30.71;96473.84;5043628;28;20136;-60
2022/09/15 10:58:06;;;;;;;6.10;3.15;;;;;;;33.11;29.74;96470.88;5043571;28;20650;-62
2022/09/15 11:00:58;;;;;;;8.13;3.58;;;;;;;31.95;29.68;96301.63;5043231;28;20577;-60
2022/09/15 11:04:11;;;;;;;6.95;3.65;;;;;;;32.96;29.38;96467.59;5041751;28;20048;-60
2022/09/15 11:06:54;;;;;;;11.38;3.70;;;;;;;32.86;29.25;96466.34;5042928;28;20088;-63
2022/09/15 11:09:33;;;;;;;10.30;3.20;;;;;;;32.75;28.91;96454.94;5047163;28;20594;-59
2022/09/15 11:12:28;;;;;;;7.88;3.13;;;;;;;32.79;29.10;96455.44;5045818;28;20096;-60
2022/09/15 11:15:16;;;;;;;9.23;3.17;;;;;;;32.93;28.97;96448.56;5045386;28;20144;-61
2022/09/15 11:18:03;;;;;;;12.75;3.70;;;;;;;32.95;29.00;96445.94;5047545;28;20088;-61
2022/09/15 11:20:48;;;;;;;7.10;3.60;;;;;;;32.91;29.58;96445.44;5045635;28;20155;-61
2022/09/15 11:23:31;;;;;;;9.70;4.10;;;;;;;33.13;29.57;96442.41;5047425;28;20597;-60
2022/09/15 11:26:04;;;;;;;8.82;4.05;;;;;;;31.54;29.93;96169.03;5047197;28;20053;-61
2022/09/15 11:28:48;;;;;;;8.50;3.47;;;;;;;33.18;29.39;96427.19;5046867;28;20136;-61
2022/09/15 11:31:20;;;;;;;;;;;;;;;33.35;29.70;96422.09;5048022;28;20061;-60
2022/09/15 11:33:54;;;;;;;8.38;3.83;;;;;;;33.52;29.78;96430.56;5046782;28;19933;-62
2022/09/15 11:36:48;;;;;;;6.10;3.90;;;;;;;33.66;28.10;96418.66;5046886;28;20160;-61
2022/09/15 11:39:22;;;;;;;17.52;3.80;;;;;;;33.93;26.21;96416.00;5046323;28;20095;-64
2022/09/15 11:41:55;;;;;;;8.40;3.53;;;;;;;33.61;26.04;96318.94;5026487;28;20080;-67
2022/09/15 11:44:30;;;;;;;9.60;3.53;;;;;;;34.38;25.33;96414.13;5027051;28;20471;-66
2022/09/15 11:47:24;;;;;;;13.95;4.15;;;;;;;34.62;25.10;96411.19;5044021;28;20171;-64
2022/09/15 11:50:19;;;;;;;12.95;4.25;;;;;;;34.64;24.50;96408.50;5025934;28;20085;-64
2022/09/15 11:52:56;;;;;;;12.43;4.78;;;;;;;34.50;25.30;96404.03;5039788;28;20049;-64
2022/09/15 11:55:35;;;;;;;17.30;4.28;;;;;;;34.55;25.34;96406.03;5044081;28;20087;-65